Time;durP1;ratioP1;P1;durP2;ratioP2;P2;SDS_P1;SDS_P2;PMS_P1;PMS_P2;Temp;Humidity;BMP_temperature;BMP_pressure;BME280_temperature;BME280_humidity;BME280_pressure;Samples;Min_cycle;Max_cycle;Signal;HPM_P1;HPM_P2
2021/12/23 00:01:00;;;;;;;3.55;3.35;;;;;;;-6.65;96.24;99271.19;4898057;29;20115;-69
2021/12/23 00:03:26;;;;;;;2.58;2.40;;;;;;;-6.70;96.58;99267.53;4897979;29;20036;-70
2021/12/23 00:05:53;;;;;;;3.55;3.35;;;;;;;-6.71;96.48;99269.97;4897763;29;20084;-70
2021/12/23 00:08:19;;;;;;;3.15;2.95;;;;;;;-6.53;97.07;99261.84;4897668;29;20024;-71
2021/12/23 00:10:44;;;;;;;3.58;3.20;;;;;;;-6.58;96.58;99258.16;4897760;29;20389;-71
2021/12/23 00:13:10;;;;;;;3.72;3.42;;;;;;;-6.77;96.50;99260.41;4897874;29;20039;-67
2021/12/23 00:23:49;;;;;;;2.55;2.35;;;;;;;-6.79;96.83;99249.38;4897800;29;20099;-72
2021/12/23 00:26:15;;;;;;;3.45;2.47;;;;;;;-6.87;96.80;99245.53;4897500;29;20036;-70
2021/12/23 00:28:40;;;;;;;2.25;2.10;;;;;;;-6.85;97.01;99246.50;4897638;29;20467;-70
2021/12/23 00:31:06;;;;;;;5.03;4.15;;;;;;;-6.81;97.15;99238.34;4897192;29;20493;-70
2021/12/23 00:33:35;;;;;;;6.30;5.60;;;;;;;-6.77;97.21;99235.22;4897159;29;20501;-70
2021/12/23 00:36:01;;;;;;;1.67;1.65;;;;;;;-6.76;97.48;99226.91;4896865;29;20024;-70
2021/12/23 00:38:30;;;;;;;2.97;1.90;;;;;;;-6.72;97.17;99223.75;4897244;29;20032;-70
2021/12/23 00:40:58;;;;;;;4.35;4.00;;;;;;;-6.69;97.46;99221.41;4897273;29;20056;-70
2021/12/23 00:43:24;;;;;;;4.38;4.15;;;;;;;-6.69;96.99;99218.03;4897318;29;20047;-70
2021/12/23 00:45:50;;;;;;;2.15;2.00;;;;;;;-6.67;97.07;99222.38;4897000;29;20036;-70
2021/12/23 00:48:16;;;;;;;4.38;3.97;;;;;;;-6.72;97.12;99221.22;4897476;29;20031;-70
2021/12/23 00:50:42;;;;;;;1.52;1.52;;;;;;;-6.71;97.07;99215.44;4897295;29;20032;-70
2021/12/23 00:53:10;;;;;;;5.88;5.13;;;;;;;-6.83;96.92;99225.66;4897212;29;20076;-70
2021/12/23 00:55:36;;;;;;;2.08;1.98;;;;;;;-6.84;96.89;99210.47;4897118;29;20073;-70
2021/12/23 00:58:02;;;;;;;2.08;1.98;;;;;;;-6.75;96.76;99208.47;4896864;29;20029;-70
2021/12/23 05:15:39;;;;;;;1.75;1.70;;;;;;;-6.21;94.09;98942.56;5723725;23;20048;-67
2021/12/23 05:18:05;;;;;;;2.13;2.03;;;;;;;-6.22;94.01;98940.81;4915620;29;20032;-67
2021/12/23 05:20:31;;;;;;;3.38;3.17;;;;;;;-6.22;94.27;98938.31;4915331;29;20030;-67
2021/12/23 05:22:56;;;;;;;2.25;2.05;;;;;;;-6.22;94.14;98950.91;4915838;29;20185;-67
2021/12/23 05:25:22;;;;;;;2.05;1.95;;;;;;;-6.23;94.13;98939.09;4915652;29;20051;-67
2021/12/23 05:27:52;;;;;;;2.42;2.33;;;;;;;-6.18;94.17;98949.44;4871904;28;20536;-67
2021/12/23 05:30:18;;;;;;;2.47;2.35;;;;;;;-6.24;94.10;98947.44;4924418;29;20172;-70
2021/12/23 05:32:43;;;;;;;1.98;1.90;;;;;;;-6.26;94.27;98938.94;4915682;29;20566;-71
2021/12/23 05:35:11;;;;;;;6.20;3.72;;;;;;;-6.28;94.41;98945.56;4915713;29;20370;-70
2021/12/23 05:37:37;;;;;;;2.78;2.65;;;;;;;-6.34;94.77;98955.31;4915292;29;20442;-70
2021/12/23 05:40:08;;;;;;;3.38;3.15;;;;;;;-6.39;94.84;98954.22;4915653;29;20066;-70
2021/12/23 05:42:33;;;;;;;3.53;3.20;;;;;;;-6.40;95.17;98960.06;4915734;29;20032;-70
2021/12/23 05:44:59;;;;;;;3.80;3.40;;;;;;;-6.40;95.27;98953.34;4915583;29;20413;-70
2021/12/23 05:47:24;;;;;;;5.70;4.28;;;;;;;-6.37;95.10;98955.19;4915323;29;20020;-70
2021/12/23 05:49:49;;;;;;;3.00;2.80;;;;;;;-6.40;94.81;98945.78;4915671;29;20070;-71
2021/12/23 05:52:15;;;;;;;3.63;3.42;;;;;;;-6.41;94.91;98949.09;4915539;29;20032;-70
2021/12/23 05:54:40;;;;;;;1.58;1.48;;;;;;;-6.48;95.19;98942.91;4915695;29;20107;-69
2021/12/23 05:57:06;;;;;;;2.30;2.20;;;;;;;-6.34;95.18;98945.22;4915531;29;20024;-69
2021/12/23 05:59:33;;;;;;;3.33;3.13;;;;;;;-6.35;95.12;98930.91;4915355;29;20035;-69
2021/12/23 06:02:00;;;;;;;1.85;1.83;;;;;;;-6.32;94.73;98924.38;4915391;29;20027;-69
2021/12/23 06:04:26;;;;;;;3.25;2.97;;;;;;;-6.32;94.61;98919.34;4915509;29;20559;-69
2021/12/23 06:06:51;;;;;;;2.88;2.67;;;;;;;-6.34;94.70;98915.00;4915126;29;20036;-69
2021/12/23 06:09:17;;;;;;;3.10;2.72;;;;;;;-6.29;94.66;98913.56;4915226;29;20034;-69
2021/12/23 06:11:42;;;;;;;3.33;3.10;;;;;;;-6.25;94.82;98906.22;4915425;29;20024;-69
2021/12/23 06:14:07;;;;;;;4.20;2.80;;;;;;;-6.23;94.72;98906.34;4915206;29;20039;-69
2021/12/23 06:16:33;;;;;;;3.83;3.53;;;;;;;-6.18;95.07;98904.91;4914969;29;20450;-71
2021/12/23 06:18:58;;;;;;;26.80;5.75;;;;;;;-6.18;94.56;98904.91;4915344;29;20039;-71
2021/12/23 06:21:28;;;;;;;3.25;3.08;;;;;;;-5.96;95.02;98911.84;4915309;29;20028;-71
2021/12/23 06:23:53;;;;;;;2.20;2.10;;;;;;;-6.06;94.59;98908.00;4915388;29;20035;-71
2021/12/23 06:26:19;;;;;;;4.55;2.30;;;;;;;-6.11;94.42;98904.41;4915068;29;20036;-71
2021/12/23 06:28:44;;;;;;;2.55;2.42;;;;;;;-6.22;94.47;98910.56;4914250;29;20060;-71
2021/12/23 06:31:09;;;;;;;2.65;2.55;;;;;;;-6.18;94.40;98912.47;4915093;29;20087;-71
2021/12/23 06:33:35;;;;;;;3.05;2.08;;;;;;;-6.29;94.39;98914.44;4917309;29;20071;-71
2021/12/23 06:36:01;;;;;;;1.58;1.58;;;;;;;-6.29;94.66;98909.38;4918335;29;20031;-71
2021/12/23 06:38:26;;;;;;;3.17;2.90;;;;;;;-6.28;94.75;98912.81;4918229;29;20533;-71
2021/12/23 06:40:51;;;;;;;8.23;4.88;;;;;;;-6.32;94.75;98918.47;4918533;29;20035;-71
2021/12/23 06:43:17;;;;;;;3.53;3.22;;;;;;;-6.31;94.64;98905.06;4918396;29;20032;-71
2021/12/23 06:45:42;;;;;;;2.10;2.05;;;;;;;-6.28;94.70;98896.03;4918295;29;20390;-71
2021/12/23 06:48:07;;;;;;;3.40;3.17;;;;;;;-6.33;94.60;98897.44;4918513;29;20031;-71
2021/12/23 06:50:33;;;;;;;2.85;2.47;;;;;;;-6.25;94.71;98900.31;4917329;29;20119;-69
2021/12/23 06:52:58;;;;;;;3.15;1.85;;;;;;;-6.29;94.46;98900.97;4918366;29;20032;-69
2021/12/23 06:55:24;;;;;;;6.55;3.90;;;;;;;-6.27;94.43;98904.44;4918178;29;20039;-67
2021/12/23 06:57:54;;;;;;;1.50;1.50;;;;;;;-6.19;94.39;98905.66;4917931;29;20056;-68
2021/12/23 07:00:20;;;;;;;2.47;2.38;;;;;;;-6.19;94.18;98890.53;4918258;29;20371;-68
2021/12/23 07:02:46;;;;;;;2.60;2.38;;;;;;;-6.13;94.32;98895.03;4918129;29;20027;-68
2021/12/23 07:05:12;;;;;;;1.70;1.70;;;;;;;-6.21;94.30;98908.13;4918068;29;20036;-68
2021/12/23 07:07:43;;;;;;;2.88;2.65;;;;;;;-6.25;94.81;98905.38;4917674;29;20358;-68
2021/12/23 07:10:09;;;;;;;2.58;2.40;;;;;;;-6.26;94.81;98908.69;4917874;29;20032;-68
2021/12/23 07:12:35;;;;;;;3.13;2.45;;;;;;;-6.29;95.05;98903.47;4917876;29;20028;-68
2021/12/23 07:15:00;;;;;;;2.78;2.58;;;;;;;-6.29;94.92;98911.91;4917828;29;20181;-68
2021/12/23 07:17:26;;;;;;;2.03;1.92;;;;;;;-6.27;94.92;98901.91;4917435;29;20040;-68
2021/12/23 07:19:51;;;;;;;3.60;3.38;;;;;;;-6.11;94.68;98904.41;4917642;29;20031;-69
2021/12/23 07:22:16;;;;;;;8.40;3.58;;;;;;;-6.17;94.71;98898.19;4917692;29;20061;-69
2021/12/23 07:24:42;;;;;;;1.77;1.67;;;;;;;-6.15;94.47;98884.88;4917760;29;20384;-70
2021/12/23 07:27:08;;;;;;;2.60;2.42;;;;;;;-6.09;94.33;98892.75;4917286;29;20071;-71
2021/12/23 07:29:34;;;;;;;4.88;3.08;;;;;;;-6.09;94.02;98892.75;4917811;29;20028;-71
2021/12/23 07:31:59;;;;;;;4.63;2.72;;;;;;;-6.16;94.25;98905.84;4917583;29;20497;-70
2021/12/23 07:34:25;;;;;;;3.83;3.53;;;;;;;-6.09;94.34;98902.84;4917709;29;20028;-71
2021/12/23 07:36:50;;;;;;;3.03;2.00;;;;;;;-6.18;94.23;98902.38;4849783;28;20177;-70
2021/12/23 07:39:16;;;;;;;4.20;3.80;;;;;;;-6.21;94.29;98889.63;4926346;29;20020;-71
2021/12/23 07:41:41;;;;;;;7.85;4.47;;;;;;;-6.18;94.50;98894.81;4917303;29;20528;-71
2021/12/23 07:44:09;;;;;;;2.25;2.15;;;;;;;-6.07;94.45;98881.06;4917152;29;20024;-71
2021/12/23 07:46:36;;;;;;;5.13;2.90;;;;;;;-6.04;94.15;98878.72;4917395;29;20054;-71
2021/12/23 07:49:03;;;;;;;3.80;3.53;;;;;;;-6.06;94.58;98875.22;4917334;29;20134;-70
2021/12/23 07:51:29;;;;;;;11.75;4.75;;;;;;;-5.93;94.28;98883.41;4916960;29;20038;-70
2021/12/23 07:53:54;;;;;;;4.07;3.35;;;;;;;-5.91;93.96;98886.84;4917239;29;20024;-70
2021/12/23 07:56:21;;;;;;;3.88;3.55;;;;;;;-5.87;93.98;98898.78;4916795;29;20108;-70
2021/12/23 07:58:47;;;;;;;5.95;5.45;;;;;;;-5.92;93.69;98886.00;4917155;29;20039;-70
2021/12/23 08:01:13;;;;;;;4.95;2.47;;;;;;;-5.90;93.75;98893.59;4917140;29;20442;-70
2021/12/23 08:03:38;;;;;;;10.02;4.10;;;;;;;-5.78;93.72;98889.16;4916965;29;20054;-71
2021/12/23 08:06:03;;;;;;;1.58;1.52;;;;;;;-5.76;93.35;98882.50;4915528;29;20624;-70
2021/12/23 08:08:29;;;;;;;7.13;3.17;;;;;;;-5.69;93.00;98884.53;4916671;29;20035;-70
2021/12/23 08:10:55;;;;;;;5.18;2.83;;;;;;;-5.59;93.13;98881.66;4916795;29;20560;-70
2021/12/23 08:13:20;;;;;;;7.57;3.92;;;;;;;-5.46;92.23;98878.94;4916749;29;20032;-70
2021/12/23 08:15:46;;;;;;;6.70;4.00;;;;;;;-5.38;92.32;98866.63;4916677;29;20441;-70
2021/12/23 08:18:11;;;;;;;9.27;4.53;;;;;;;-5.33;91.74;98860.13;4916564;29;20028;-70
2021/12/23 08:20:36;;;;;;;5.13;4.78;;;;;;;-5.27;92.04;98851.97;4916454;29;20091;-71
2021/12/23 08:23:02;;;;;;;3.70;3.40;;;;;;;-5.15;90.91;98847.47;4916607;29;20020;-71
2021/12/23 08:25:28;;;;;;;5.00;4.60;;;;;;;-5.01;90.86;98848.97;4916402;29;20059;-71
2021/12/23 08:27:54;;;;;;;2.30;2.20;;;;;;;-4.74;89.74;98848.44;4916523;29;20111;-71
2021/12/23 08:30:20;;;;;;;3.00;1.63;;;;;;;-4.80;89.06;98838.91;4916437;29;20028;-71
2021/12/23 08:32:48;;;;;;;3.38;3.08;;;;;;;-4.90;89.52;98829.22;4916531;29;20028;-71
2021/12/23 08:35:14;;;;;;;4.47;4.10;;;;;;;-4.65;89.22;98834.53;4916357;29;20062;-71
2021/12/23 08:37:40;;;;;;;3.35;2.80;;;;;;;-4.39;88.32;98827.19;4914825;29;20075;-71
2021/12/23 08:40:08;;;;;;;4.40;4.03;;;;;;;-4.24;86.89;98822.75;4916187;29;20028;-71
2021/12/23 08:42:34;;;;;;;7.28;5.43;;;;;;;-3.93;86.53;98813.88;4916505;29;20059;-71
2021/12/23 08:45:00;;;;;;;4.43;4.07;;;;;;;-4.17;86.69;98819.66;4916234;29;20032;-71
2021/12/23 08:47:25;;;;;;;5.68;3.22;;;;;;;-4.34;87.53;98814.75;4916062;29;20027;-71
2021/12/23 08:49:51;;;;;;;3.92;3.42;;;;;;;-4.43;88.22;98818.59;4916010;29;20438;-71
2021/12/23 08:52:17;;;;;;;10.05;6.30;;;;;;;-4.48;89.05;98817.56;4916147;29;20102;-70
2021/12/23 08:54:42;;;;;;;7.40;5.22;;;;;;;-4.37;89.43;98824.72;4915595;29;20024;-71
2021/12/23 08:57:09;;;;;;;4.70;4.30;;;;;;;-4.31;89.44;98819.91;4915559;29;20390;-71
2021/12/23 08:59:34;;;;;;;4.45;4.10;;;;;;;-4.20;88.77;98813.63;4915945;29;20028;-71
2021/12/23 09:02:00;;;;;;;11.02;4.72;;;;;;;-3.99;88.08;98824.59;4916047;29;20032;-71
2021/12/23 09:04:26;;;;;;;5.13;4.65;;;;;;;-3.96;87.09;98824.75;4915975;29;20024;-71
2021/12/23 09:06:51;;;;;;;6.88;2.50;;;;;;;-4.16;87.43;98815.47;4915690;29;20016;-70
2021/12/23 09:09:17;;;;;;;2.15;2.05;;;;;;;-4.10;87.52;98802.22;4915735;29;20018;-70
2021/12/23 09:11:43;;;;;;;1.88;1.75;;;;;;;-3.76;86.63;98806.94;4915812;29;20040;-71
2021/12/23 09:14:09;;;;;;;5.47;3.97;;;;;;;-3.56;86.12;98793.38;4915912;29;20039;-71
2021/12/23 09:16:35;;;;;;;2.85;2.70;;;;;;;-3.11;84.53;98806.00;4915500;29;20516;-71
2021/12/23 09:19:01;;;;;;;4.25;3.42;;;;;;;-3.24;84.01;98813.97;4914597;29;20024;-71
2021/12/23 09:21:26;;;;;;;5.25;4.63;;;;;;;-3.40;85.25;98813.41;4915704;29;20028;-71
2021/12/23 09:23:51;;;;;;;3.58;3.28;;;;;;;-3.33;85.90;98828.84;4915791;29;20092;-71
2021/12/23 09:26:17;;;;;;;8.63;3.50;;;;;;;-3.48;86.35;98841.75;4915404;29;20028;-72
2021/12/23 09:34:11;;;;;;;4.35;4.15;;;;;;;-3.65;87.09;98818.34;4915924;29;20096;-71
2021/12/23 09:36:39;;;;;;;5.20;4.70;;;;;;;-3.57;87.56;98814.44;4915451;29;20450;-70
2021/12/23 09:39:07;;;;;;;5.95;4.68;;;;;;;-3.40;87.52;98798.19;4915518;29;20072;-70
2021/12/23 09:41:37;;;;;;;5.57;2.97;;;;;;;-3.21;86.25;98807.34;4914505;29;20111;-70
2021/12/23 09:44:04;;;;;;;;;;;;;;;-3.24;86.16;98808.88;4916088;29;20028;-70
2021/12/23 09:46:30;;;;;;;6.22;3.42;;;;;;;-3.27;86.92;98796.13;4915345;29;19918;-70
2021/12/23 09:48:57;;;;;;;3.33;3.13;;;;;;;-3.23;86.95;98800.50;4915478;29;20017;-70
2021/12/23 09:51:24;;;;;;;6.65;4.88;;;;;;;-3.43;87.89;98813.31;4915507;29;20032;-70
2021/12/23 09:53:57;;;;;;;3.28;3.13;;;;;;;-3.27;87.45;98804.59;4915912;29;20035;-70
2021/12/23 09:56:26;;;;;;;2.70;2.53;;;;;;;-3.33;87.84;98798.44;4915330;29;20079;-70
2021/12/23 09:58:51;;;;;;;2.88;2.67;;;;;;;-3.22;87.59;98792.09;4915475;29;20035;-71
2021/12/23 10:01:17;;;;;;;5.18;3.10;;;;;;;-3.10;87.30;98788.31;4915405;29;20024;-70
2021/12/23 10:03:43;;;;;;;6.40;4.18;;;;;;;-2.98;87.79;98787.91;4915387;29;20114;-71
2021/12/23 10:06:09;;;;;;;13.63;5.60;;;;;;;-2.83;86.84;98777.44;4915516;29;20040;-70
2021/12/23 10:08:35;;;;;;;4.53;4.20;;;;;;;-2.81;86.83;98767.34;4918738;29;20039;-70
2021/12/23 10:11:13;;;;;;;6.05;3.30;;;;;;;-2.82;87.33;98765.63;4918953;29;20028;-71
2021/12/23 10:38:24;;;;;;;5.00;4.63;;;;;;;-1.78;84.64;98736.88;4914286;29;20454;-71
2021/12/23 10:40:53;;;;;;;5.53;2.67;;;;;;;-1.74;84.42;98747.97;4918330;29;20466;-71
2021/12/23 10:43:25;;;;;;;4.45;4.05;;;;;;;-1.72;84.38;98746.34;4918411;29;20272;-70
2021/12/23 10:45:58;;;;;;;5.45;4.63;;;;;;;-1.81;84.48;98732.56;4918359;29;20165;-71
2021/12/23 10:48:31;;;;;;;4.88;4.47;;;;;;;-1.49;84.67;98725.03;4918343;29;20027;-71
2021/12/23 10:51:04;;;;;;;8.85;4.05;;;;;;;-1.40;84.53;98720.22;4911095;29;20024;-72
2021/12/23 10:53:46;;;;;;;21.83;4.65;;;;;;;-1.55;84.84;98712.13;4918250;29;20047;-72
2021/12/23 10:59:09;;;;;;;11.60;4.65;;;;;;;-1.30;84.83;98695.94;4918177;29;20092;-72
2021/12/23 11:01:54;;;;;;;4.88;4.22;;;;;;;-1.29;84.98;98692.56;4918240;29;20028;-72
2021/12/23 11:04:20;;;;;;;5.82;4.70;;;;;;;-1.20;84.79;98681.78;4918323;29;20028;-72
2021/12/23 11:06:47;;;;;;;6.32;4.50;;;;;;;-1.19;84.54;98665.72;4917772;29;20028;-72
2021/12/23 11:43:53;;;;;;;13.65;6.55;;;;;;;-0.32;83.01;98622.94;4898741;29;20534;-68
2021/12/23 11:46:24;;;;;;;6.07;5.53;;;;;;;-0.13;83.24;98623.34;4898511;29;20036;-69
2021/12/23 11:48:53;;;;;;;9.93;5.60;;;;;;;-0.10;82.81;98618.28;4898329;29;20101;-69
2021/12/23 11:51:28;;;;;;;5.18;4.50;;;;;;;-0.14;82.81;98611.44;4898248;29;20028;-68
2021/12/23 11:53:53;;;;;;;3.10;2.90;;;;;;;-0.07;82.88;98605.63;4898201;29;20080;-69
2021/12/23 11:56:21;;;;;;;7.78;3.90;;;;;;;0.13;82.83;98603.50;4898161;29;20021;-68
2021/12/23 11:58:48;;;;;;;6.85;3.38;;;;;;;0.39;81.05;98593.84;4898266;29;20044;-69
2021/12/23 12:01:25;;;;;;;4.03;3.75;;;;;;;0.33;81.24;98586.06;4898300;29;20047;-69
2021/12/23 12:03:56;;;;;;;8.13;5.22;;;;;;;0.25;81.45;98580.84;4898228;29;20035;-69
2021/12/23 12:06:25;;;;;;;5.03;4.53;;;;;;;0.28;81.87;98574.94;4897887;29;20390;-68
2021/12/23 12:09:09;;;;;;;2.95;2.67;;;;;;;0.45;81.61;98568.47;4897736;29;20020;-69
2021/12/23 12:11:35;;;;;;;4.05;3.80;;;;;;;0.65;80.56;98569.69;4898012;29;20425;-69
2021/12/23 12:14:00;;;;;;;3.88;2.97;;;;;;;0.54;80.63;98562.69;4898013;29;20020;-69
2021/12/23 12:16:32;;;;;;;3.40;3.10;;;;;;;0.76;81.50;98550.31;4897879;29;20501;-69
2021/12/23 12:18:58;;;;;;;10.25;4.35;;;;;;;0.61;81.37;98552.63;4897476;29;20111;-69
2021/12/23 12:21:31;;;;;;;6.90;4.03;;;;;;;0.82;81.26;98548.72;4897709;29;20119;-69
2021/12/23 12:24:08;;;;;;;9.50;5.03;;;;;;;0.62;81.56;98556.03;4897687;29;20112;-69
2021/12/23 12:26:37;;;;;;;9.88;5.18;;;;;;;0.76;81.00;98560.53;4897580;29;20119;-69
2021/12/23 12:29:08;;;;;;;11.80;5.45;;;;;;;0.74;81.13;98552.00;4897420;29;20043;-69
2021/12/23 12:31:39;;;;;;;5.38;4.00;;;;;;;0.78;81.71;98547.81;4897744;29;20052;-69
2021/12/23 12:34:06;;;;;;;8.27;4.35;;;;;;;1.03;80.51;98549.09;4897625;29;20550;-69
2021/12/23 12:36:40;;;;;;;7.03;4.93;;;;;;;0.86;80.93;98530.09;4897408;29;20033;-69
2021/12/23 12:39:08;;;;;;;8.05;4.13;;;;;;;1.00;81.17;98543.91;4897313;29;20085;-69
2021/12/23 12:41:36;;;;;;;6.47;4.80;;;;;;;1.20;80.72;98542.53;4897395;29;20028;-68
2021/12/23 12:44:12;;;;;;;5.93;3.45;;;;;;;1.25;79.61;98533.25;4897310;29;20116;-69
2021/12/23 12:46:41;;;;;;;3.95;3.65;;;;;;;1.24;79.86;98523.88;4897254;29;20040;-69
2021/12/23 12:49:17;;;;;;;6.10;5.50;;;;;;;1.07;79.99;98539.78;4897228;29;20448;-69
2021/12/23 12:51:47;;;;;;;7.35;4.43;;;;;;;0.95;80.68;98540.44;4897241;29;20048;-69
2021/12/23 12:54:18;;;;;;;6.45;5.13;;;;;;;0.98;81.21;98526.06;4896067;29;20435;-69
2021/12/23 12:56:49;;;;;;;3.72;3.45;;;;;;;0.86;81.31;98530.94;4897223;29;20036;-69
2021/12/23 12:59:17;;;;;;;8.73;5.55;;;;;;;0.82;81.80;98528.31;4880269;29;20056;-69
2021/12/23 13:01:49;;;;;;;8.98;5.93;;;;;;;0.82;81.94;98518.13;4897173;29;20064;-69
2021/12/23 13:06:37;;;;;;;3.78;3.58;;;;;;;0.93;82.89;98517.47;5069102;28;20394;-69
2021/12/23 13:09:10;;;;;;;9.35;5.57;;;;;;;0.92;82.44;98515.75;5070638;28;20432;-69
2021/12/23 13:11:36;;;;;;;7.07;3.63;;;;;;;1.39;80.71;98507.09;5069246;28;20045;-69
2021/12/23 13:14:04;;;;;;;6.90;5.15;;;;;;;0.99;82.12;98506.50;5069310;28;20063;-69
2021/12/23 13:16:30;;;;;;;6.07;5.50;;;;;;;0.97;82.27;98505.63;5068910;28;20052;-69
2021/12/23 13:19:17;;;;;;;6.05;4.55;;;;;;;1.07;82.02;98499.84;5071822;28;20060;-69
2021/12/23 13:21:46;;;;;;;5.35;3.83;;;;;;;0.97;82.26;98500.53;5080794;28;20032;-68
2021/12/23 13:24:19;;;;;;;5.00;4.53;;;;;;;1.03;82.55;98498.06;5089495;28;20031;-68
2021/12/23 13:26:46;;;;;;;3.95;3.67;;;;;;;1.21;82.30;98502.56;5089033;28;20481;-68
2021/12/23 13:29:13;;;;;;;4.88;3.60;;;;;;;1.20;82.27;98491.50;5089229;28;20074;-68
2021/12/23 13:31:40;;;;;;;5.25;4.70;;;;;;;1.17;82.97;98491.47;5088990;28;20040;-68
2021/12/23 13:34:12;;;;;;;8.93;4.03;;;;;;;1.31;82.16;98478.06;5089603;28;20048;-68
2021/12/23 13:37:08;;;;;;;8.43;4.35;;;;;;;1.36;82.19;98482.41;5072744;28;20021;-68
2021/12/23 13:39:40;;;;;;;6.43;4.40;;;;;;;1.13;82.98;98482.06;5080162;28;20054;-68
2021/12/23 13:42:08;;;;;;;2.88;2.75;;;;;;;1.14;83.61;98476.13;5088755;28;20036;-68
2021/12/23 13:44:37;;;;;;;6.40;5.68;;;;;;;1.13;83.66;98476.97;5089260;28;20027;-68
2021/12/23 13:47:12;;;;;;;7.88;5.57;;;;;;;1.15;84.09;98467.63;5088753;28;20035;-68
2021/12/23 13:49:50;;;;;;;4.40;4.07;;;;;;;1.22;84.11;98469.44;5084723;28;20021;-68
2021/12/23 13:52:22;;;;;;;11.68;5.88;;;;;;;1.35;84.03;98469.59;5083303;28;20032;-69
2021/12/23 13:54:48;;;;;;;7.10;4.28;;;;;;;1.46;84.08;98462.94;5088634;28;20031;-68
2021/12/23 13:57:17;;;;;;;4.70;3.45;;;;;;;1.56;83.88;98464.78;5088428;28;20071;-68
2021/12/23 13:59:43;;;;;;;8.40;3.83;;;;;;;1.51;83.41;98469.84;5088644;28;20020;-68
2021/12/23 14:02:11;;;;;;;6.60;3.35;;;;;;;1.61;84.09;98472.50;5088509;28;20027;-68
2021/12/23 14:04:40;;;;;;;4.93;4.45;;;;;;;1.49;84.79;98470.63;5088643;28;20496;-68
2021/12/23 14:07:15;;;;;;;5.07;3.60;;;;;;;1.58;83.83;98468.19;5071998;28;20392;-68
2021/12/23 14:09:43;;;;;;;4.07;3.42;;;;;;;1.63;84.62;98471.66;5079852;28;20032;-68
2021/12/23 14:12:11;;;;;;;4.57;4.22;;;;;;;1.76;83.57;98458.22;5088425;28;20381;-68
2021/12/23 14:14:54;;;;;;;7.38;3.78;;;;;;;1.84;84.00;98462.53;5088390;28;20024;-68
2021/12/23 14:17:28;;;;;;;13.73;7.60;;;;;;;1.80;84.55;98457.41;5077318;28;20405;-68
2021/12/23 14:23:11;;;;;;;8.07;7.32;;;;;;;1.79;84.43;98458.25;5068215;28;20127;-68
2021/12/23 14:25:30;;;;;;;3.10;2.88;;;;;;;2.16;82.20;98438.19;5074616;28;20090;-68
2021/12/23 14:27:55;;;;;;;4.18;3.83;;;;;;;2.27;82.16;98441.75;5074259;28;20029;-68
2021/12/23 14:30:33;;;;;;;6.05;3.95;;;;;;;2.39;81.93;98435.00;5074541;28;20400;-68
2021/12/23 14:33:13;;;;;;;3.55;3.25;;;;;;;2.37;82.93;98431.56;5074440;28;20020;-68
2021/12/23 14:35:39;;;;;;;5.22;4.20;;;;;;;2.50;81.99;98424.03;5072189;28;20023;-68
2021/12/23 14:38:04;;;;;;;5.95;5.32;;;;;;;3.10;79.47;98421.91;5055221;28;20099;-68
2021/12/23 14:40:30;;;;;;;8.10;4.82;;;;;;;3.16;79.62;98427.06;5070526;28;20071;-68
2021/12/23 14:43:00;;;;;;;3.90;2.92;;;;;;;3.52;77.96;98417.84;5074319;28;20028;-68
